Time;durP1;ratioP1;P1;durP2;ratioP2;P2;SDS_P1;SDS_P2;PMS_P1;PMS_P2;Temp;Humidity;BMP_temperature;BMP_pressure;BME280_temperature;BME280_humidity;BME280_pressure;Samples;Min_cycle;Max_cycle;Signal;HPM_P1;HPM_P2
2024/03/01 00:01:40;;;;;;;;;;;;;;;9.25;100.00;98950.56;5103442;27;20443;-78
2024/03/01 00:04:09;;;;;;;;;;;;;;;9.18;100.00;98950.66;5117261;27;20363;-79
2024/03/01 00:06:36;;;;;;;;;;;;;;;9.20;100.00;98942.78;5116780;27;19911;-77
2024/03/01 00:09:02;;;;;;;;;;;;;;;9.22;100.00;98937.63;5135431;27;19923;-79
2024/03/01 00:11:31;;;;;;;;;;;;;;;9.20;100.00;98920.72;5099841;28;20398;-77
2024/03/01 00:13:58;;;;;;;;;;;;;;;9.23;100.00;98922.63;5100639;28;19959;-78
2024/03/01 00:16:25;;;;;;;;;;;;;;;9.31;100.00;98913.81;5113831;28;19920;-77
2024/03/01 00:19:03;;;;;;;;;;;;;;;9.25;100.00;98907.22;5095236;28;20345;-77
2024/03/01 00:21:31;;;;;;;;;;;;;;;9.32;100.00;98900.78;5102551;28;19912;-78
2024/03/01 00:23:58;;;;;;;;;;;;;;;9.27;100.00;98895.78;5095207;28;19916;-78
2024/03/01 00:26:35;;;;;;;;;;;;;;;9.14;100.00;98886.56;5114641;28;19960;-79
2024/03/01 00:29:20;;;;;;;;;;;;;;;9.09;100.00;98882.31;5099761;28;20333;-75
2024/03/01 00:31:47;;;;;;;;;;;;;;;8.99;100.00;98877.75;5114256;28;20446;-76
2024/03/01 00:34:23;;;;;;;;;;;;;;;8.96;100.00;98879.41;5113180;28;19965;-77
2024/03/01 00:36:50;;;;;;;;;;;;;;;9.01;100.00;98885.63;5112949;28;19912;-80
2024/03/01 00:39:19;;;;;;;;;;;;;;;9.03;100.00;98886.78;5113179;28;19970;-79
2024/03/01 00:41:51;;;;;;;;;;;;;;;9.06;100.00;98882.38;5112143;28;19911;-77
2024/03/01 00:45:01;;;;;;;;;;;;;;;9.05;100.00;98878.06;5093688;28;19912;-76
2024/03/01 00:47:50;;;;;;;;;;;;;;;9.22;100.00;98868.69;5097703;28;19916;-78
2024/03/01 00:50:50;;;;;;;;;;;;;;;9.15;100.00;98866.84;5108784;28;19927;-77
2024/03/01 00:56:54;;;;;;;;;;;;;;;9.36;100.00;98857.38;5107278;28;20376;-76
2024/03/01 00:59:23;;;;;;;;;;;;;;;9.36;100.00;98857.38;5105539;28;19951;-75
2024/03/01 01:02:14;;;;;;;;;;;;;;;9.24;100.00;98838.72;5099956;28;19916;-76
2024/03/01 01:04:47;;;;;;;;;;;;;;;9.33;100.00;98841.69;5097100;28;19920;-78
2024/03/01 01:07:21;;;;;;;;;;;;;;;9.22;100.00;98828.09;5102961;28;19916;-78
2024/03/01 01:09:55;;;;;;;;;;;;;;;9.28;100.00;98840.19;5114595;27;19958;-76
2024/03/01 01:13:03;;;;;;;;;;;;;;;9.32;100.00;98838.16;5079005;28;20406;-77
2024/03/01 01:15:46;;;;;;;;;;;;;;;9.37;100.00;98848.69;5093047;28;19919;-77
2024/03/01 01:18:38;;;;;;;;;;;;;;;9.42;100.00;98839.13;5080019;28;19969;-76
2024/03/01 01:21:19;;;;;;;;;;;;;;;9.42;100.00;98847.41;5089044;28;19916;-77
2024/03/01 01:23:46;;;;;;;;;;;;;;;9.43;100.00;98837.94;5085561;28;19962;-77
2024/03/01 01:26:13;;;;;;;;;;;;;;;9.36;100.00;98844.38;5075679;28;19917;-76
2024/03/01 01:29:20;;;;;;;;;;;;;;;9.32;100.00;98840.91;5074651;28;19916;-76
2024/03/01 01:32:08;;;;;;;;;;;;;;;9.18;100.00;98821.13;5078097;28;19912;-74
2024/03/01 01:34:47;;;;;;;;;;;;;;;9.11;100.00;98824.78;5072957;28;19913;-75
2024/03/01 01:37:16;;;;;;;;;;;;;;;9.06;100.00;98828.03;5090437;28;19916;-78
2024/03/01 01:40:07;;;;;;;;;;;;;;;9.02;100.00;98815.53;5088132;28;19945;-77
2024/03/01 01:42:56;;;;;;;;;;;;;;;8.96;100.00;98796.75;5093191;28;19913;-75
2024/03/01 01:45:46;;;;;;;;;;;;;;;8.85;100.00;98789.88;5092076;28;19916;-74
2024/03/01 01:48:19;;;;;;;;;;;;;;;8.86;100.00;98796.94;5091255;28;19912;-76
2024/03/01 01:50:49;;;;;;;;;;;;;;;8.76;100.00;98792.41;5088008;28;20304;-75
2024/03/01 01:53:21;;;;;;;;;;;;;;;8.73;100.00;98788.53;5093752;28;20007;-76
2024/03/01 01:56:08;;;;;;;;;;;;;;;8.61;100.00;98789.13;5096160;28;20395;-75
2024/03/01 01:59:14;;;;;;;;;;;;;;;8.52;100.00;98794.41;5054949;28;19917;-76
2024/03/01 02:02:25;;;;;;;;;;;;;;;8.50;100.00;98799.53;5039390;28;19917;-76
2024/03/01 02:05:11;;;;;;;;;;;;;;;8.55;100.00;98804.59;5051155;28;19916;-76
2024/03/01 02:07:45;;;;;;;;;;;;;;;8.53;100.00;98794.00;5054205;28;19912;-77
2024/03/01 02:10:33;;;;;;;;;;;;;;;8.54;100.00;98797.53;5057054;28;19974;-76
2024/03/01 02:13:44;;;;;;;;;;;;;;;8.54;100.00;98792.78;5072075;28;20401;-78
2024/03/01 02:16:43;;;;;;;;;;;;;;;8.51;100.00;98792.84;5072784;28;19919;-76
2024/03/01 02:19:34;;;;;;;;;;;;;;;8.55;100.00;98788.06;5056030;28;19967;-75
2024/03/01 02:22:17;;;;;;;;;;;;;;;8.50;100.00;98794.03;5049294;28;20357;-79
2024/03/01 02:24:52;;;;;;;;;;;;;;;8.44;100.00;98796.50;5045848;28;20061;-78
2024/03/01 02:27:50;;;;;;;;;;;;;;;8.39;100.00;98808.00;5070175;28;19950;-79
2024/03/01 02:30:41;;;;;;;;;;;;;;;8.41;100.00;98799.31;5063369;28;19977;-77
2024/03/01 02:33:39;;;;;;;;;;;;;;;8.42;100.00;98785.13;5073346;28;19923;-77
2024/03/01 02:36:12;;;;;;;;;;;;;;;8.38;100.00;98781.66;5071692;28;20010;-77
2024/03/01 02:39:25;;;;;;;;;;;;;;;8.32;100.00;98794.34;5056230;28;19935;-76
2024/03/01 02:42:13;;;;;;;;;;;;;;;8.24;100.00;98794.88;5070966;28;19923;-76
2024/03/01 02:45:08;;;;;;;;;;;;;;;8.21;100.00;98795.69;5046232;28;19927;-78
2024/03/01 02:48:05;;;;;;;;;;;;;;;8.14;100.00;98774.56;5051624;28;20391;-76
2024/03/01 02:50:51;;;;;;;;;;;;;;;8.18;100.00;98767.03;5074451;28;19912;-78
2024/03/01 02:53:28;;;;;;;;;;;;;;;8.21;100.00;98771.69;5090222;28;19931;-75
2024/03/01 02:56:45;;;;;;;;;;;;;;;8.18;100.00;98767.81;5043420;28;19917;-78
2024/03/01 02:59:52;;;;;;;;;;;;;;;8.15;100.00;98760.38;5053764;28;19912;-76
2024/03/01 03:02:43;;;;;;;;;;;;;;;8.09;100.00;98767.56;5045528;28;19999;-76
2024/03/01 03:06:05;;;;;;;;;;;;;;;8.08;100.00;98770.72;5053695;28;20000;-75
2024/03/01 03:08:39;;;;;;;;;;;;;;;8.00;100.00;98770.09;5041852;28;19978;-78
2024/03/01 03:15:17;;;;;;;;;;;;;;;7.80;100.00;98752.72;5033426;28;19939;-76
2024/03/01 03:18:17;;;;;;;;;;;;;;;7.78;100.00;98757.84;5016640;28;19917;-76
2024/03/01 03:21:14;;;;;;;;;;;;;;;7.79;100.00;98764.91;5029944;28;19917;-76
2024/03/01 03:24:11;;;;;;;;;;;;;;;7.80;100.00;98760.97;5043307;28;20460;-78
2024/03/01 03:27:19;;;;;;;;;;;;;;;7.77;100.00;98764.56;5042939;28;19913;-79
2024/03/01 03:36:15;;;;;;;;;;;;;;;7.86;100.00;98753.00;5057028;28;19919;-77
2024/03/01 03:39:09;;;;;;;;;;;;;;;7.87;100.00;98743.56;5051003;28;19970;-77
2024/03/01 03:41:54;;;;;;;;;;;;;;;7.87;100.00;98732.56;5059445;28;19951;-77
2024/03/01 03:45:14;;;;;;;;;;;;;;;7.82;100.00;98731.06;5064210;28;19913;-78
2024/03/01 03:48:27;;;;;;;;;;;;;;;7.73;100.00;98726.09;5038492;28;19999;-78
2024/03/01 03:57:48;;;;;;;;;;;;;;;7.49;100.00;98718.22;5037429;28;19982;-76
2024/03/01 04:00:34;;;;;;;;;;;;;;;7.45;100.00;98726.53;5015146;28;19920;-76
2024/03/01 04:03:14;;;;;;;;;;;;;;;7.50;100.00;98717.81;5064879;28;19912;-77
2024/03/01 04:05:52;;;;;;;;;;;;;;;7.55;100.00;98733.03;5051807;28;19914;-78
2024/03/01 04:08:55;;;;;;;;;;;;;;;7.53;100.00;98719.75;5029252;28;19925;-77
2024/03/01 04:14:43;;;;;;;;;;;;;;;7.81;100.00;98713.00;5071577;28;20057;-77
2024/03/01 04:17:17;;;;;;;;;;;;;;;7.86;100.00;98726.28;5072823;28;19916;-77
2024/03/01 04:20:05;;;;;;;;;;;;;;;7.87;100.00;98733.34;5062030;28;19920;-75
2024/03/01 04:22:50;;;;;;;;;;;;;;;8.03;100.00;98727.97;5056894;28;20292;-76
2024/03/01 04:25:16;;;;;;;;;;;;;;;8.05;100.00;98722.81;5055180;28;19970;-77
2024/03/01 04:28:18;;;;;;;;;;;;;;;8.15;100.00;98734.84;5044669;28;19916;-78
2024/03/01 04:30:59;;;;;;;;;;;;;;;8.17;100.00;98718.69;5041615;28;19923;-78
2024/03/01 04:33:44;;;;;;;;;;;;;;;8.36;100.00;98715.25;5071776;28;20312;-79
2024/03/01 04:36:09;;;;;;;;;;;;;;;8.48;100.00;98727.63;5046528;28;20013;-78
2024/03/01 04:38:57;;;;;;;;;;;;;;;8.52;100.00;98722.81;5066268;28;19913;-78
2024/03/01 04:41:41;;;;;;;;;;;;;;;8.46;100.00;98730.78;5070904;28;20022;-77
2024/03/01 04:44:15;;;;;;;;;;;;;;;8.49;100.00;98723.66;5071137;28;19916;-77
2024/03/01 04:47:02;;;;;;;;;;;;;;;8.44;100.00;98730.41;5073187;28;19912;-77
2024/03/01 04:49:48;;;;;;;;;;;;;;;8.54;100.00;98725.94;5085291;28;19987;-80
2024/03/01 04:52:36;;;;;;;;;;;;;;;8.55;100.00;98738.50;5062367;28;19912;-77
2024/03/01 04:55:05;;;;;;;;;;;;;;;8.53;100.00;98741.66;5058456;28;20375;-78
2024/03/01 04:57:45;;;;;;;;;;;;;;;8.62;100.00;98732.84;5081018;28;20384;-78
2024/03/01 05:00:12;;;;;;;;;;;;;;;8.61;100.00;98723.03;5074295;28;20017;-75
2024/03/01 05:06:02;;;;;;;;;;;;;;;8.66;100.00;98736.31;5091646;28;19923;-76
2024/03/01 05:08:44;;;;;;;;;;;;;;;8.78;100.00;98734.91;5046296;28;19982;-77
2024/03/01 05:11:35;;;;;;;;;;;;;;;8.75;100.00;98710.94;5091247;28;19976;-78
2024/03/01 05:14:10;;;;;;;;;;;;;;;8.76;100.00;98740.84;5091102;28;19931;-78
2024/03/01 05:16:44;;;;;;;;;;;;;;;8.76;100.00;98738.09;5058311;28;19934;-78
2024/03/01 05:19:14;;;;;;;;;;;;;;;8.64;100.00;98740.69;5074507;28;19916;-77
2024/03/01 05:21:39;;;;;;;;;;;;;;;8.54;100.00;98748.72;5081598;28;20401;-76
2024/03/01 05:24:05;;;;;;;;;;;;;;;8.60;100.00;98726.22;5110335;28;19912;-77
2024/03/01 05:26:44;;;;;;;;;;;;;;;8.55;100.00;98741.25;5119172;27;20276;-77
2024/03/01 05:29:32;;;;;;;;;;;;;;;8.54;100.00;98742.44;5116630;27;19920;-77
2024/03/01 05:32:40;;;;;;;;;;;;;;;8.53;100.00;98760.16;5134690;27;19919;-75
2024/03/01 05:35:15;;;;;;;;;;;;;;;8.57;100.00;98750.63;5112184;27;19918;-79
2024/03/01 05:37:46;;;;;;;;;;;;;;;8.51;100.00;98719.28;5125916;27;19994;-76
2024/03/01 05:40:21;;;;;;;;;;;;;;;8.51;100.00;98748.78;5137151;27;19911;-77
2024/03/01 05:42:57;;;;;;;;;;;;;;;8.39;100.00;98776.94;5113167;27;19912;-77
2024/03/01 05:45:52;;;;;;;;;;;;;;;8.32;100.00;98771.56;5120238;27;19941;-78
2024/03/01 05:48:38;;;;;;;;;;;;;;;8.23;100.00;98763.03;5135927;27;19918;-79
2024/03/01 05:51:05;;;;;;;;;;;;;;;8.15;100.00;98768.66;5123692;27;20492;-77
2024/03/01 05:53:32;;;;;;;;;;;;;;;8.16;100.00;98781.22;5136204;27;19911;-77
2024/03/01 05:59:02;;;;;;;;;;;;;;;8.20;100.00;98783.13;5127567;27;20009;-76
2024/03/01 06:01:32;;;;;;;;;;;;;;;8.18;100.00;98792.59;5118693;27;20003;-78
2024/03/01 06:03:59;;;;;;;;;;;;;;;8.31;100.00;98794.78;5117483;28;19950;-78
2024/03/01 06:06:30;;;;;;;;;;;;;;;8.33;100.00;98781.34;5134646;27;19911;-77
2024/03/01 06:09:59;;;;;;;;;;;;;;;8.33;100.00;98793.16;5136483;27;19920;-76
2024/03/01 06:12:57;;;;;;;;;;;;;;;8.28;100.00;98784.56;5113135;27;19919;-79
2024/03/01 06:16:03;;;;;;;;;;;;;;;8.27;100.00;98792.03;5084947;27;19994;-76
2024/03/01 06:19:07;;;;;;;;;;;;;;;8.18;100.00;98800.84;5130176;27;20805;-77
2024/03/01 06:22:11;;;;;;;;;;;;;;;8.38;100.00;98798.16;5135072;27;19915;-78
2024/03/01 06:24:55;;;;;;;;;;;;;;;8.41;100.00;98797.34;5106074;27;20439;-76
2024/03/01 06:27:37;;;;;;;;;;;;;;;8.35;100.00;98795.50;5133183;27;19912;-76
2024/03/01 06:30:17;;;;;;;;;;;;;;;8.35;100.00;98801.00;5098643;27;19916;-76
2024/03/01 06:33:01;;;;;;;;;;;;;;;8.45;100.00;98800.03;5120186;27;19968;-77
2024/03/01 06:35:26;;;;;;;;;;;;;;;8.44;100.00;98798.47;5105934;27;19921;-78
2024/03/01 06:38:20;;;;;;;;;;;;;;;8.35;100.00;98812.78;5118772;27;20279;-80
2024/03/01 06:40:47;;;;;;;;;;;;;;;8.32;100.00;98780.56;5130721;27;19968;-79
2024/03/01 06:43:12;;;;;;;;;;;;;;;8.32;100.00;98790.84;5091810;28;19915;-79
2024/03/01 06:45:48;;;;;;;;;;;;;;;8.30;100.00;98793.19;5104855;27;19960;-77
2024/03/01 06:48:23;;;;;;;;;;;;;;;8.28;100.00;98790.06;5122514;27;19912;-75
2024/03/01 06:50:52;;;;;;;;;;;;;;;8.24;100.00;98776.38;5110421;28;20375;-78
2024/03/01 06:53:22;;;;;;;;;;;;;;;8.29;100.00;98786.91;5114478;27;19919;-76
2024/03/01 06:55:48;;;;;;;;;;;;;;;8.33;100.00;98792.38;5118305;27;19918;-79
2024/03/01 06:58:18;;;;;;;;;;;;;;;8.29;100.00;98802.63;5135138;27;20014;-77
2024/03/01 07:00:46;;;;;;;;;;;;;;;8.25;100.00;98797.19;5108413;28;20004;-80
2024/03/01 07:03:19;;;;;;;;;;;;;;;8.14;100.00;98783.59;5099572;28;19951;-78
2024/03/01 07:05:47;;;;;;;;;;;;;;;8.12;100.00;98793.47;5129150;27;20000;-80
2024/03/01 07:08:14;;;;;;;;;;;;;;;8.05;100.00;98788.88;5118377;27;19912;-79
2024/03/01 07:10:39;;;;;;;;;;;;;;;8.15;100.00;98774.16;5118433;27;19945;-79
2024/03/01 07:13:06;;;;;;;;;;;;;;;8.08;100.00;98782.50;5104524;27;19920;-79
2024/03/01 07:15:33;;;;;;;;;;;;;;;8.08;100.00;98781.72;5114445;27;19915;-80
2024/03/01 07:17:58;;;;;;;;;;;;;;;8.11;100.00;98775.41;5101706;27;19916;-78
2024/03/01 07:20:24;;;;;;;;;;;;;;;7.99;100.00;98785.03;5105040;28;20387;-80
2024/03/01 07:22:50;;;;;;;;;;;;;;;8.00;100.00;98775.59;5118325;27;19922;-77
2024/03/01 07:25:19;;;;;;;;;;;;;;;7.94;100.00;98791.00;5135170;27;19911;-77
2024/03/01 07:28:31;;;;;;;;;;;;;;;8.04;100.00;98800.28;5109418;27;19916;-77
2024/03/01 07:30:59;;;;;;;;;;;;;;;8.05;100.00;98775.09;5116675;27;19991;-77
2024/03/01 07:33:25;;;;;;;;;;;;;;;8.00;100.00;98786.59;5103749;28;20348;-78
2024/03/01 07:35:52;;;;;;;;;;;;;;;8.27;100.00;98794.78;5094459;28;20009;-75
2024/03/01 07:38:36;;;;;;;;;;;;;;;8.29;100.00;98792.41;5113056;27;19950;-77
2024/03/01 07:41:07;;;;;;;;;;;;;;;8.29;100.00;98799.88;5114386;27;19915;-77
2024/03/01 07:43:36;;;;;;;;;;;;;;;8.33;100.00;98798.66;5113809;27;19911;-77
2024/03/01 07:46:40;;;;;;;;;;;;;;;8.28;100.00;98793.59;5115196;27;19912;-77
2024/03/01 07:49:27;;;;;;;;;;;;;;;8.15;100.00;98792.63;5111287;27;19911;-76
2024/03/01 07:52:28;;;;;;;;;;;;;;;8.35;100.00;98793.50;5108618;27;20371;-75
2024/03/01 07:54:59;;;;;;;;;;;;;;;8.38;100.00;98795.41;5113464;28;19911;-78
2024/03/01 07:57:26;;;;;;;;;;;;;;;8.36;100.00;98799.81;5124303;27;19916;-75
2024/03/01 08:00:03;;;;;;;;;;;;;;;8.40;100.00;98804.03;5111977;28;19931;-77
2024/03/01 08:02:30;;;;;;;;;;;;;;;8.38;100.00;98813.94;5107383;27;19916;-78
2024/03/01 08:05:06;;;;;;;;;;;;;;;8.35;100.00;98790.75;5134528;27;19933;-76
2024/03/01 08:07:42;;;;;;;;;;;;;;;8.42;100.00;98792.63;5120522;27;19919;-77
2024/03/01 08:10:22;;;;;;;;;;;;;;;8.46;100.00;98801.59;5124242;27;19923;-76
2024/03/01 08:12:58;;;;;;;;;;;;;;;8.53;100.00;98782.19;5113062;27;19927;-77
2024/03/01 08:15:40;;;;;;;;;;;;;;;8.49;100.00;98787.00;5115928;27;19975;-78
2024/03/01 08:18:15;;;;;;;;;;;;;;;8.48;100.00;98790.94;5096115;28;20384;-75
2024/03/01 08:20:55;;;;;;;;;;;;;;;8.45;100.00;98791.75;5111618;27;20351;-79
2024/03/01 08:23:26;;;;;;;;;;;;;;;8.55;100.00;98796.31;5135056;27;19911;-78
2024/03/01 08:25:57;;;;;;;;;;;;;;;8.58;100.00;98787.22;5101902;27;19936;-77
2024/03/01 08:28:46;;;;;;;;;;;;;;;8.58;100.00;98787.22;5133099;27;19915;-78
2024/03/01 08:31:28;;;;;;;;;;;;;;;8.67;100.00;98773.69;5134132;27;20443;-79
2024/03/01 08:33:59;;;;;;;;;;;;;;;8.79;100.00;98783.31;5128335;27;20379;-78
2024/03/01 08:36:27;;;;;;;;;;;;;;;8.81;100.00;98773.41;5106141;27;19951;-79
2024/03/01 08:39:21;;;;;;;;;;;;;;;8.77;100.00;98780.19;5098495;28;19927;-77
2024/03/01 08:42:07;;;;;;;;;;;;;;;8.83;100.00;98782.03;5117147;27;19936;-77
2024/03/01 08:44:38;;;;;;;;;;;;;;;8.82;100.00;98771.41;5115480;27;19916;-77
2024/03/01 08:47:18;;;;;;;;;;;;;;;8.96;100.00;98776.66;5134033;27;19915;-77
2024/03/01 08:52:45;;;;;;;;;;;;;;;9.17;100.00;98786.47;5124258;27;20367;-77
2024/03/01 08:55:24;;;;;;;;;;;;;;;9.21;100.00;98792.72;5114819;27;19971;-75
2024/03/01 08:57:57;;;;;;;;;;;;;;;9.23;100.00;98782.00;5133458;27;19911;-76
2024/03/01 09:00:28;;;;;;;;;;;;;;;9.36;100.00;98777.41;5115312;27;20011;-76
2024/03/01 09:03:10;;;;;;;;;;;;;;;9.37;100.00;98784.50;5115057;27;19998;-78
2024/03/01 09:05:41;;;;;;;;;;;;;;;9.28;100.00;98800.84;5119264;27;19942;-76
2024/03/01 09:08:15;;;;;;;;;;;;;;;9.16;100.00;98796.72;5096716;27;19916;-76
2024/03/01 09:10:42;;;;;;;;;;;;;;;8.99;100.00;98784.84;5098711;28;19919;-78
2024/03/01 09:13:44;;;;;;;;;;;;;;;9.06;100.00;98780.41;5094989;28;20480;-76
2024/03/01 09:16:19;;;;;;;;;;;;;;;9.32;100.00;98785.78;5117748;28;19919;-76
2024/03/01 09:18:47;;;;;;;;;;;;;;;9.38;100.00;98791.56;5097578;28;19965;-78
2024/03/01 09:21:34;;;;;;;;;;;;;;;9.29;100.00;98786.59;5114798;28;19918;-77
2024/03/01 09:24:03;;;;;;;;;;;;;;;9.27;100.00;98789.03;5114832;28;19980;-77
2024/03/01 09:26:37;;;;;;;;;;;;;;;9.17;100.00;98786.47;5133408;28;19987;-76
2024/03/01 09:29:15;;;;;;;;;;;;;;;9.23;100.00;98779.25;5133189;28;19968;-77
2024/03/01 09:31:50;;;;;;;;;;;;;;;9.21;100.00;98784.44;5133787;28;19915;-76
2024/03/01 09:34:40;;;;;;;;;;;;;;;9.20;100.00;98780.13;5121617;28;19920;-75
2024/03/01 09:37:22;;;;;;;;;;;;;;;9.13;100.00;98772.78;5113141;28;20019;-75
2024/03/01 09:39:48;;;;;;;;;;;;;;;9.14;100.00;98779.84;5091674;28;19919;-74
2024/03/01 09:42:33;;;;;;;;;;;;;;;9.02;100.00;98774.19;5124550;28;20366;-79
2024/03/01 09:45:29;;;;;;;;;;;;;;;9.14;100.00;98777.09;5130494;27;19942;-78
2024/03/01 09:48:07;;;;;;;;;;;;;;;9.23;100.00;98777.28;5113304;27;19916;-76
2024/03/01 09:50:48;;;;;;;;;;;;;;;9.12;100.00;98782.25;5109124;27;19916;-77
2024/03/01 09:53:35;;;;;;;;;;;;;;;9.31;100.00;98777.91;5101781;28;19947;-77
2024/03/01 09:56:28;;;;;;;;;;;;;;;9.45;100.00;98782.38;5127604;28;19922;-77
2024/03/01 09:59:13;;;;;;;;;;;;;;;9.57;100.00;98774.22;5128548;27;19915;-80
2024/03/01 10:01:42;;;;;;;;;;;;;;;9.63;100.00;98771.72;5102340;28;20299;-77
2024/03/01 10:04:29;;;;;;;;;;;;;;;9.48;100.00;98770.47;5100860;28;19915;-77
2024/03/01 10:07:08;;;;;;;;;;;;;;;9.66;100.00;98768.09;5123726;28;20379;-77
2024/03/01 10:09:37;;;;;;;;;;;;;;;9.64;100.00;98774.06;5129839;28;20014;-78
2024/03/01 10:12:04;;;;;;;;;;;;;;;9.78;100.00;98773.72;5112641;27;19953;-78
2024/03/01 10:14:47;;;;;;;;;;;;;;;9.51;100.00;98764.88;5114624;27;19927;-77
2024/03/01 10:17:28;;;;;;;;;;;;;;;9.70;100.00;98752.25;5108534;28;19922;-76
2024/03/01 10:19:53;;;;;;;;;;;;;;;9.80;100.00;98760.28;5104232;27;19915;-76
2024/03/01 10:22:25;;;;;;;;;;;;;;;9.95;100.00;98752.44;5119048;27;19911;-77
2024/03/01 10:25:02;;;;;;;;;;;;;;;10.15;100.00;98744.06;5118611;27;19995;-77
2024/03/01 10:27:34;;;;;;;;;;;;;;;10.20;100.00;98747.09;5108854;27;19912;-77
2024/03/01 10:29:59;;;;;;;;;;;;;;;10.25;100.00;98740.28;5129791;27;19919;-76
2024/03/01 10:32:34;;;;;;;;;;;;;;;10.32;100.00;98742.88;5136296;27;19968;-77
2024/03/01 10:35:09;;;;;;;;;;;;;;;10.33;100.00;98738.13;5108276;27;19912;-77
2024/03/01 10:37:40;;;;;;;;;;;;;;;10.22;100.00;98735.63;5136491;27;19994;-78
2024/03/01 10:40:07;;;;;;;;;;;;;;;10.10;100.00;98728.03;5122528;27;19918;-75
2024/03/01 10:42:43;;;;;;;;;;;;;;;10.09;100.00;98727.25;5136713;27;19922;-77
2024/03/01 10:45:17;;;;;;;;;;;;;;;9.93;100.00;98734.75;5133283;27;19976;-80
2024/03/01 10:47:46;;;;;;;;;;;;;;;10.12;100.00;98725.63;5125689;27;19911;-76
2024/03/01 10:50:40;;;;;;;;;;;;;;;10.26;100.00;98725.28;5107124;28;19915;-76
2024/03/01 10:53:24;;;;;;;;;;;;;;;10.08;100.00;98713.88;5098157;28;20365;-76
2024/03/01 10:55:56;;;;;;;;;;;;;;;10.20;100.00;98724.25;5106247;28;19911;-77
2024/03/01 10:58:24;;;;;;;;;;;;;;;10.36;100.00;98723.47;5120811;27;19911;-77
2024/03/01 11:01:08;;;;;;;;;;;;;;;10.55;100.00;98714.25;5135253;27;19911;-77
2024/03/01 11:03:44;;;;;;;;;;;;;;;10.65;100.00;98713.19;5127712;27;19912;-76
2024/03/01 11:06:33;;;;;;;;;;;;;;;10.60;100.00;98714.50;5129409;27;20009;-75
2024/03/01 11:09:09;;;;;;;;;;;;;;;10.61;100.00;98710.50;5117497;27;19918;-74
2024/03/01 11:11:55;;;;;;;;;;;;;;;10.65;100.00;98713.19;5111759;27;19911;-74
2024/03/01 11:14:22;;;;;;;;;;;;;;;9.95;100.00;98711.03;5089297;28;20410;-79
2024/03/01 11:16:49;;;;;;;;;;;;;;;9.69;100.00;98704.56;5097452;28;20349;-77
2024/03/01 11:19:19;;;;;;;;;;;;;;;9.53;100.00;98696.28;5118086;27;19927;-77
2024/03/01 11:21:48;;;;;;;;;;;;;;;9.53;100.00;98695.50;5117920;27;19964;-78
2024/03/01 11:24:24;;;;;;;;;;;;;;;9.64;100.00;98688.53;5117296;27;19911;-75
2024/03/01 11:26:54;;;;;;;;;;;;;;;9.73;100.00;98683.19;5117662;27;19919;-77
2024/03/01 11:29:22;;;;;;;;;;;;;;;9.88;100.00;98674.56;5111712;28;19916;-76
2024/03/01 11:31:54;;;;;;;;;;;;;;;10.02;100.00;98679.72;5110323;27;20077;-76
2024/03/01 11:34:29;;;;;;;;;;;;;;;9.98;100.00;98682.56;5117086;27;20315;-76
2024/03/01 11:37:14;;;;;;;;;;;;;;;9.98;100.00;98685.34;5117624;27;19952;-80
2024/03/01 11:40:05;;;;;;;;;;;;;;;10.14;100.00;98696.34;5110017;28;19916;-78
2024/03/01 11:43:07;;;;;;;;;;;;;;;10.06;100.00;98680.41;5113338;27;20009;-77
2024/03/01 11:45:35;;;;;;;;;;;;;;;10.02;100.00;98677.72;5047581;28;19999;-74
2024/03/01 11:48:00;;;;;;;;;;;;;;;10.01;100.00;98678.16;5084376;28;19970;-75
2024/03/01 11:50:30;;;;;;;;;;;;;;;10.00;100.00;98666.38;5101779;28;19951;-76
2024/03/01 11:52:58;;;;;;;;;;;;;;;10.13;100.00;98674.69;5106372;27;20009;-75
2024/03/01 11:55:46;;;;;;;;;;;;;;;10.22;100.00;98679.63;5114257;27;19918;-77
2024/03/01 11:58:24;;;;;;;;;;;;;;;10.34;100.00;98670.63;5112658;27;20002;-77
2024/03/01 12:01:05;;;;;;;;;;;;;;;10.49;100.00;98664.28;5116896;27;19918;-77
2024/03/01 12:03:33;;;;;;;;;;;;;;;10.49;100.00;98653.22;5110825;28;19916;-76
2024/03/01 12:06:17;;;;;;;;;;;;;;;10.67;100.00;98640.94;5104408;28;19967;-77
2024/03/01 12:08:51;;;;;;;;;;;;;;;10.80;100.00;98652.75;5101955;27;19911;-77
2024/03/01 12:11:17;;;;;;;;;;;;;;;10.83;100.00;98649.91;5116858;27;19915;-75
2024/03/01 12:13:53;;;;;;;;;;;;;;;10.91;100.00;98647.72;5094522;28;19942;-77
2024/03/01 12:16:33;;;;;;;;;;;;;;;10.83;100.00;98643.59;5115803;27;19915;-77
2024/03/01 12:19:03;;;;;;;;;;;;;;;11.03;100.00;98633.13;5106312;28;19941;-77
2024/03/01 12:21:39;;;;;;;;;;;;;;;11.10;100.00;98632.13;5106438;28;20432;-78
2024/03/01 12:24:28;;;;;;;;;;;;;;;11.27;100.00;98636.38;5118627;27;19972;-77
2024/03/01 12:26:54;;;;;;;;;;;;;;;11.37;100.00;98636.03;5115877;27;19912;-76
2024/03/01 12:29:39;;;;;;;;;;;;;;;11.24;100.00;98635.25;5126728;27;19930;-76
2024/03/01 12:32:12;;;;;;;;;;;;;;;11.29;100.00;98645.75;5115600;27;19973;-76
2024/03/01 12:34:52;;;;;;;;;;;;;;;11.16;100.00;98631.13;5086481;28;19919;-77
2024/03/01 12:37:30;;;;;;;;;;;;;;;11.28;100.00;98621.28;5112724;27;20005;-76
2024/03/01 12:40:18;;;;;;;;;;;;;;;11.20;99.64;98620.75;5116690;27;20001;-77
2024/03/01 12:42:59;;;;;;;;;;;;;;;11.25;100.00;98624.97;5108164;28;20006;-78
2024/03/01 12:45:34;;;;;;;;;;;;;;;11.34;97.79;98620.28;5100210;27;20006;-77
2024/03/01 12:48:03;;;;;;;;;;;;;;;11.36;97.28;98617.88;5116739;27;19911;-76
2024/03/01 12:50:28;;;;;;;;;;;;;;;11.41;97.64;98605.47;5102764;27;20017;-77
2024/03/01 12:53:02;;;;;;;;;;;;;;;11.17;96.66;98607.81;5116304;27;19965;-78
2024/03/01 12:55:38;;;;;;;;;;;;;;;10.65;100.00;98613.72;5110412;28;19940;-76
2024/03/01 12:58:13;;;;;;;;;;;;;;;10.61;100.00;98613.03;5110158;27;19912;-76
2024/03/01 13:00:59;;;;;;;;;;;;;;;10.44;100.00;98609.56;5108181;28;19999;-76
2024/03/01 13:03:37;;;;;;;;;;;;;;;10.59;100.00;98599.69;5109667;28;19916;-76
2024/03/01 13:06:02;;;;;;;;;;;;;;;10.55;99.82;98596.22;5109199;27;19935;-78
2024/03/01 13:08:33;;;;;;;;;;;;;;;10.63;100.00;98601.56;5116201;28;19965;-79
2024/03/01 13:11:01;;;;;;;;;;;;;;;10.60;100.00;98601.25;5116345;28;19927;-77
2024/03/01 13:13:29;;;;;;;;;;;;;;;10.70;100.00;98598.59;5109330;28;19920;-79
2024/03/01 13:16:18;;;;;;;;;;;;;;;10.58;99.19;98597.34;5109843;28;19911;-78
2024/03/01 13:19:04;;;;;;;;;;;;;;;10.53;99.48;98595.91;5123712;28;19919;-77
2024/03/01 13:21:50;;;;;;;;;;;;;;;10.57;100.00;98601.31;5108727;28;20010;-76
2024/03/01 13:24:30;;;;;;;;;;;;;;;10.31;100.00;98603.22;5110228;28;19912;-77
2024/03/01 13:27:08;;;;;;;;;;;;;;;10.01;100.00;98604.41;5113143;28;19915;-79
2024/03/01 13:29:34;;;;;;;;;;;;;;;10.00;100.00;98613.16;5085211;28;20383;-77
2024/03/01 13:32:11;;;;;;;;;;;;;;;10.12;100.00;98610.44;5090541;28;19981;-77
2024/03/01 13:34:43;;;;;;;;;;;;;;;10.09;100.00;98613.28;5109921;28;19916;-76
2024/03/01 13:37:10;;;;;;;;;;;;;;;10.12;100.00;98609.66;5111482;28;20374;-77
2024/03/01 13:39:45;;;;;;;;;;;;;;;10.00;100.00;98611.16;5112974;28;20153;-76
2024/03/01 13:42:19;;;;;;;;;;;;;;;9.93;100.00;98605.06;5115205;28;20159;-77
2024/03/01 13:44:45;;;;;;;;;;;;;;;9.96;100.00;98604.16;5114991;28;19926;-77
2024/03/01 13:47:19;;;;;;;;;;;;;;;9.96;100.00;98593.91;5097821;28;19924;-80
2024/03/01 13:50:15;;;;;;;;;;;;;;;10.02;100.00;98607.94;5112076;27;19919;-77
2024/03/01 13:52:41;;;;;;;;;;;;;;;10.14;100.00;98602.47;5096595;27;19921;-78
2024/03/01 13:55:13;;;;;;;;;;;;;;;10.07;100.00;98610.19;5115454;27;19999;-77
2024/03/01 13:57:39;;;;;;;;;;;;;;;9.99;100.00;98614.34;5102801;27;19916;-76
2024/03/01 14:00:14;;;;;;;;;;;;;;;9.90;100.00;98603.94;5099405;28;19947;-77
2024/03/01 14:02:41;;;;;;;;;;;;;;;9.97;100.00;98602.97;5111948;27;19919;-79
2024/03/01 14:05:14;;;;;;;;;;;;;;;9.99;100.00;98601.34;5123402;27;19922;-76
2024/03/01 14:07:44;;;;;;;;;;;;;;;10.01;100.00;98600.88;5118436;27;19911;-78
2024/03/01 14:10:10;;;;;;;;;;;;;;;10.01;100.00;98592.59;5109985;28;20010;-76
2024/03/01 14:12:35;;;;;;;;;;;;;;;10.19;100.00;98590.16;5112768;27;19958;-76
2024/03/01 14:15:00;;;;;;;;;;;;;;;10.20;100.00;98592.50;5118223;27;19973;-76
2024/03/01 14:17:25;;;;;;;;;;;;;;;10.32;100.00;98604.78;5117339;27;20430;-77
2024/03/01 14:19:52;;;;;;;;;;;;;;;10.32;100.00;98607.56;5105762;27;19912;-78